sensor_id;sensor_type;location;lat;lon;timestamp;P1;durP1;ratioP1;P2;durP2;ratioP2
27740;SDS011;15134;48.768;9.184;2023-04-29T00:00:13;4.70;;;2.13;;
27740;SDS011;15134;48.768;9.184;2023-04-29T00:02:39;5.32;;;1.85;;
27740;SDS011;15134;48.768;9.184;2023-04-29T00:05:06;4.75;;;2.25;;
27740;SDS011;15134;48.768;9.184;2023-04-29T00:07:35;4.97;;;2.60;;
27740;SDS011;15134;48.768;9.184;2023-04-29T00:10:00;3.22;;;1.70;;
27740;SDS011;15134;48.768;9.184;2023-04-29T00:12:26;4.83;;;2.30;;
27740;SDS011;15134;48.768;9.184;2023-04-29T00:14:55;4.05;;;2.10;;
27740;SDS011;15134;48.768;9.184;2023-04-29T00:19:46;3.95;;;2.00;;
27740;SDS011;15134;48.768;9.184;2023-04-29T00:22:15;5.80;;;1.97;;
27740;SDS011;15134;48.768;9.184;2023-04-29T00:24:42;4.28;;;2.08;;
27740;SDS011;15134;48.768;9.184;2023-04-29T00:27:07;4.70;;;2.57;;
27740;SDS011;15134;48.768;9.184;2023-04-29T00:29:35;3.78;;;1.92;;
27740;SDS011;15134;48.768;9.184;2023-04-29T00:32:01;4.67;;;1.83;;
27740;SDS011;15134;48.768;9.184;2023-04-29T00:34:27;2.80;;;1.70;;
27740;SDS011;15134;48.768;9.184;2023-04-29T00:36:53;4.20;;;2.00;;
27740;SDS011;15134;48.768;9.184;2023-04-29T00:39:19;5.13;;;1.90;;
27740;SDS011;15134;48.768;9.184;2023-04-29T00:41:51;5.00;;;2.10;;
27740;SDS011;15134;48.768;9.184;2023-04-29T00:44:17;4.80;;;1.75;;
27740;SDS011;15134;48.768;9.184;2023-04-29T00:46:43;3.83;;;1.80;;
27740;SDS011;15134;48.768;9.184;2023-04-29T00:49:12;4.25;;;1.80;;
27740;SDS011;15134;48.768;9.184;2023-04-29T00:51:40;3.85;;;1.90;;
27740;SDS011;15134;48.768;9.184;2023-04-29T00:54:07;3.92;;;1.80;;
27740;SDS011;15134;48.768;9.184;2023-04-29T00:56:37;3.60;;;1.90;;
27740;SDS011;15134;48.768;9.184;2023-04-29T00:59:05;3.67;;;1.90;;
27740;SDS011;15134;48.768;9.184;2023-04-29T01:01:35;3.80;;;1.67;;
27740;SDS011;15134;48.768;9.184;2023-04-29T01:04:01;5.97;;;2.40;;
27740;SDS011;15134;48.768;9.184;2023-04-29T01:17:30;4.80;;;2.17;;
27740;SDS011;15134;48.768;9.184;2023-04-29T01:20:02;5.05;;;2.00;;
27740;SDS011;15134;48.768;9.184;2023-04-29T01:22:29;7.70;;;1.90;;
27740;SDS011;15134;48.768;9.184;2023-04-29T01:24:58;6.30;;;1.90;;
27740;SDS011;15134;48.768;9.184;2023-04-29T01:27:29;3.50;;;1.67;;
27740;SDS011;15134;48.768;9.184;2023-04-29T01:30:14;4.50;;;1.77;;
27740;SDS011;15134;48.768;9.184;2023-04-29T01:32:52;4.35;;;1.67;;
27740;SDS011;15134;48.768;9.184;2023-04-29T01:43:46;3.95;;;2.13;;
27740;SDS011;15134;48.768;9.184;2023-04-29T01:46:21;4.60;;;1.80;;
27740;SDS011;15134;48.768;9.184;2023-04-29T01:48:51;4.45;;;1.70;;
27740;SDS011;15134;48.768;9.184;2023-04-29T01:51:18;4.57;;;1.90;;
27740;SDS011;15134;48.768;9.184;2023-04-29T01:53:47;5.53;;;2.13;;
27740;SDS011;15134;48.768;9.184;2023-04-29T01:56:13;3.75;;;1.73;;
27740;SDS011;15134;48.768;9.184;2023-04-29T01:58:57;6.28;;;2.47;;
27740;SDS011;15134;48.768;9.184;2023-04-29T02:01:50;3.80;;;2.00;;
27740;SDS011;15134;48.768;9.184;2023-04-29T02:04:15;6.73;;;2.20;;
27740;SDS011;15134;48.768;9.184;2023-04-29T02:06:42;5.47;;;2.03;;
27740;SDS011;15134;48.768;9.184;2023-04-29T02:09:08;5.30;;;2.03;;
27740;SDS011;15134;48.768;9.184;2023-04-29T02:11:34;3.50;;;1.80;;
27740;SDS011;15134;48.768;9.184;2023-04-29T02:14:00;7.83;;;2.17;;
27740;SDS011;15134;48.768;9.184;2023-04-29T02:16:29;4.27;;;1.97;;
27740;SDS011;15134;48.768;9.184;2023-04-29T02:18:59;4.63;;;2.05;;
27740;SDS011;15134;48.768;9.184;2023-04-29T02:21:25;3.92;;;2.10;;
27740;SDS011;15134;48.768;9.184;2023-04-29T02:23:51;4.55;;;2.20;;
27740;SDS011;15134;48.768;9.184;2023-04-29T02:26:22;4.90;;;1.90;;
27740;SDS011;15134;48.768;9.184;2023-04-29T02:31:14;5.53;;;2.60;;
27740;SDS011;15134;48.768;9.184;2023-04-29T02:33:43;9.43;;;3.08;;
27740;SDS011;15134;48.768;9.184;2023-04-29T02:36:09;10.50;;;2.83;;
27740;SDS011;15134;48.768;9.184;2023-04-29T02:38:34;7.30;;;2.97;;
27740;SDS011;15134;48.768;9.184;2023-04-29T02:41:00;5.50;;;2.10;;
27740;SDS011;15134;48.768;9.184;2023-04-29T02:43:26;7.67;;;2.60;;
27740;SDS011;15134;48.768;9.184;2023-04-29T02:45:57;8.77;;;2.25;;
27740;SDS011;15134;48.768;9.184;2023-04-29T02:48:24;5.15;;;2.53;;
27740;SDS011;15134;48.768;9.184;2023-04-29T02:50:50;7.10;;;2.60;;
27740;SDS011;15134;48.768;9.184;2023-04-29T02:53:17;6.95;;;3.00;;
27740;SDS011;15134;48.768;9.184;2023-04-29T02:55:45;8.05;;;2.80;;
27740;SDS011;15134;48.768;9.184;2023-04-29T02:58:12;5.80;;;3.53;;
27740;SDS011;15134;48.768;9.184;2023-04-29T03:00:39;4.47;;;2.13;;
27740;SDS011;15134;48.768;9.184;2023-04-29T03:03:05;4.72;;;2.15;;
27740;SDS011;15134;48.768;9.184;2023-04-29T03:05:31;4.60;;;2.60;;
27740;SDS011;15134;48.768;9.184;2023-04-29T03:07:57;7.45;;;3.38;;
27740;SDS011;15134;48.768;9.184;2023-04-29T03:10:23;4.27;;;2.30;;
27740;SDS011;15134;48.768;9.184;2023-04-29T03:12:48;6.47;;;2.80;;
27740;SDS011;15134;48.768;9.184;2023-04-29T03:15:14;5.67;;;2.43;;
27740;SDS011;15134;48.768;9.184;2023-04-29T03:17:42;4.40;;;2.70;;
27740;SDS011;15134;48.768;9.184;2023-04-29T03:20:11;6.57;;;2.55;;
27740;SDS011;15134;48.768;9.184;2023-04-29T03:22:37;5.60;;;2.97;;
27740;SDS011;15134;48.768;9.184;2023-04-29T03:25:03;4.53;;;2.60;;
27740;SDS011;15134;48.768;9.184;2023-04-29T03:27:30;5.50;;;2.70;;
27740;SDS011;15134;48.768;9.184;2023-04-29T03:29:59;8.95;;;4.30;;
27740;SDS011;15134;48.768;9.184;2023-04-29T03:32:25;6.30;;;3.42;;
27740;SDS011;15134;48.768;9.184;2023-04-29T03:34:51;5.20;;;3.07;;
27740;SDS011;15134;48.768;9.184;2023-04-29T03:37:38;5.68;;;2.63;;
27740;SDS011;15134;48.768;9.184;2023-04-29T03:40:19;6.43;;;3.42;;
27740;SDS011;15134;48.768;9.184;2023-04-29T03:42:46;6.43;;;3.03;;
27740;SDS011;15134;48.768;9.184;2023-04-29T03:45:11;4.93;;;2.80;;
27740;SDS011;15134;48.768;9.184;2023-04-29T03:50:10;5.70;;;2.88;;
27740;SDS011;15134;48.768;9.184;2023-04-29T03:52:37;6.30;;;2.72;;
27740;SDS011;15134;48.768;9.184;2023-04-29T03:55:08;4.40;;;2.28;;
27740;SDS011;15134;48.768;9.184;2023-04-29T03:57:35;4.95;;;2.80;;
27740;SDS011;15134;48.768;9.184;2023-04-29T04:00:02;4.83;;;2.87;;
27740;SDS011;15134;48.768;9.184;2023-04-29T04:02:38;7.07;;;3.05;;
27740;SDS011;15134;48.768;9.184;2023-04-29T04:05:04;7.15;;;3.03;;
27740;SDS011;15134;48.768;9.184;2023-04-29T04:07:36;4.80;;;2.80;;
27740;SDS011;15134;48.768;9.184;2023-04-29T04:10:25;4.95;;;2.80;;
27740;SDS011;15134;48.768;9.184;2023-04-29T04:12:52;5.50;;;3.42;;
27740;SDS011;15134;48.768;9.184;2023-04-29T04:15:19;4.45;;;2.80;;
27740;SDS011;15134;48.768;9.184;2023-04-29T04:17:46;5.43;;;2.60;;
27740;SDS011;15134;48.768;9.184;2023-04-29T04:20:12;6.47;;;2.80;;
27740;SDS011;15134;48.768;9.184;2023-04-29T04:22:38;5.00;;;2.97;;
27740;SDS011;15134;48.768;9.184;2023-04-29T04:25:14;4.82;;;2.88;;
27740;SDS011;15134;48.768;9.184;2023-04-29T04:27:40;6.68;;;3.25;;
27740;SDS011;15134;48.768;9.184;2023-04-29T04:30:10;4.85;;;2.50;;
27740;SDS011;15134;48.768;9.184;2023-04-29T04:32:36;5.78;;;2.72;;
27740;SDS011;15134;48.768;9.184;2023-04-29T04:35:03;5.38;;;2.80;;
27740;SDS011;15134;48.768;9.184;2023-04-29T04:37:30;6.70;;;2.55;;
27740;SDS011;15134;48.768;9.184;2023-04-29T04:40:02;3.65;;;2.20;;
27740;SDS011;15134;48.768;9.184;2023-04-29T04:42:57;4.50;;;2.58;;
27740;SDS011;15134;48.768;9.184;2023-04-29T04:45:23;6.37;;;3.43;;
27740;SDS011;15134;48.768;9.184;2023-04-29T04:47:49;3.50;;;2.20;;
27740;SDS011;15134;48.768;9.184;2023-04-29T04:50:26;5.15;;;2.40;;
27740;SDS011;15134;48.768;9.184;2023-04-29T04:52:59;4.75;;;2.70;;
27740;SDS011;15134;48.768;9.184;2023-04-29T04:55:48;7.15;;;3.38;;
27740;SDS011;15134;48.768;9.184;2023-04-29T04:58:14;6.18;;;2.72;;
27740;SDS011;15134;48.768;9.184;2023-04-29T05:00:44;4.78;;;2.72;;
27740;SDS011;15134;48.768;9.184;2023-04-29T05:03:10;8.05;;;3.10;;
27740;SDS011;15134;48.768;9.184;2023-04-29T05:05:36;6.13;;;2.92;;
27740;SDS011;15134;48.768;9.184;2023-04-29T05:08:02;6.20;;;3.28;;
27740;SDS011;15134;48.768;9.184;2023-04-29T05:10:42;8.32;;;2.80;;
27740;SDS011;15134;48.768;9.184;2023-04-29T05:13:09;5.60;;;3.08;;
27740;SDS011;15134;48.768;9.184;2023-04-29T05:15:36;6.28;;;2.70;;
27740;SDS011;15134;48.768;9.184;2023-04-29T05:18:04;6.32;;;3.00;;
27740;SDS011;15134;48.768;9.184;2023-04-29T05:20:31;5.97;;;2.47;;
27740;SDS011;15134;48.768;9.184;2023-04-29T05:22:59;4.03;;;2.45;;
27740;SDS011;15134;48.768;9.184;2023-04-29T05:25:25;6.75;;;2.67;;
27740;SDS011;15134;48.768;9.184;2023-04-29T05:27:53;5.70;;;2.53;;
27740;SDS011;15134;48.768;9.184;2023-04-29T05:30:20;5.25;;;2.47;;
27740;SDS011;15134;48.768;9.184;2023-04-29T05:32:47;5.53;;;3.10;;
27740;SDS011;15134;48.768;9.184;2023-04-29T05:35:15;5.90;;;3.40;;
27740;SDS011;15134;48.768;9.184;2023-04-29T05:37:41;7.20;;;3.50;;
27740;SDS011;15134;48.768;9.184;2023-04-29T05:40:35;6.97;;;3.38;;
27740;SDS011;15134;48.768;9.184;2023-04-29T05:43:37;5.72;;;3.50;;
27740;SDS011;15134;48.768;9.184;2023-04-29T05:46:03;9.00;;;4.63;;
27740;SDS011;15134;48.768;9.184;2023-04-29T05:48:32;12.43;;;8.95;;
27740;SDS011;15134;48.768;9.184;2023-04-29T05:50:58;7.00;;;4.23;;
27740;SDS011;15134;48.768;9.184;2023-04-29T05:53:24;5.07;;;3.67;;
27740;SDS011;15134;48.768;9.184;2023-04-29T05:55:51;8.45;;;4.75;;
27740;SDS011;15134;48.768;9.184;2023-04-29T05:58:19;10.35;;;7.05;;
27740;SDS011;15134;48.768;9.184;2023-04-29T06:00:47;8.98;;;4.32;;
27740;SDS011;15134;48.768;9.184;2023-04-29T06:03:18;10.15;;;5.88;;
27740;SDS011;15134;48.768;9.184;2023-04-29T06:05:46;15.07;;;8.43;;
27740;SDS011;15134;48.768;9.184;2023-04-29T06:08:38;19.88;;;11.18;;
27740;SDS011;15134;48.768;9.184;2023-04-29T06:11:16;17.42;;;10.95;;
27740;SDS011;15134;48.768;9.184;2023-04-29T06:13:42;14.15;;;8.02;;
27740;SDS011;15134;48.768;9.184;2023-04-29T06:16:14;6.47;;;4.05;;
27740;SDS011;15134;48.768;9.184;2023-04-29T06:18:40;12.40;;;6.95;;
27740;SDS011;15134;48.768;9.184;2023-04-29T06:21:06;7.03;;;4.10;;
27740;SDS011;15134;48.768;9.184;2023-04-29T06:23:35;7.50;;;4.83;;
27740;SDS011;15134;48.768;9.184;2023-04-29T06:26:06;5.50;;;3.58;;
27740;SDS011;15134;48.768;9.184;2023-04-29T06:28:32;5.97;;;3.70;;
27740;SDS011;15134;48.768;9.184;2023-04-29T06:30:57;8.40;;;5.03;;
27740;SDS011;15134;48.768;9.184;2023-04-29T06:33:30;6.80;;;4.95;;
27740;SDS011;15134;48.768;9.184;2023-04-29T06:35:58;7.35;;;4.35;;
27740;SDS011;15134;48.768;9.184;2023-04-29T06:38:56;6.25;;;4.20;;
27740;SDS011;15134;48.768;9.184;2023-04-29T06:42:03;6.28;;;4.22;;
27740;SDS011;15134;48.768;9.184;2023-04-29T06:45:04;11.43;;;6.57;;
27740;SDS011;15134;48.768;9.184;2023-04-29T06:47:54;7.47;;;4.70;;
27740;SDS011;15134;48.768;9.184;2023-04-29T06:50:49;8.07;;;4.03;;
27740;SDS011;15134;48.768;9.184;2023-04-29T06:53:16;7.40;;;4.75;;
27740;SDS011;15134;48.768;9.184;2023-04-29T06:55:42;11.85;;;6.30;;
27740;SDS011;15134;48.768;9.184;2023-04-29T06:58:11;4.88;;;2.80;;
27740;SDS011;15134;48.768;9.184;2023-04-29T07:00:38;6.70;;;3.40;;
27740;SDS011;15134;48.768;9.184;2023-04-29T07:03:05;6.85;;;3.90;;
27740;SDS011;15134;48.768;9.184;2023-04-29T07:05:31;6.88;;;4.30;;
27740;SDS011;15134;48.768;9.184;2023-04-29T07:07:59;6.00;;;3.77;;
27740;SDS011;15134;48.768;9.184;2023-04-29T07:10:25;7.13;;;2.40;;
27740;SDS011;15134;48.768;9.184;2023-04-29T07:12:53;5.95;;;2.92;;
27740;SDS011;15134;48.768;9.184;2023-04-29T07:15:20;5.68;;;3.28;;
27740;SDS011;15134;48.768;9.184;2023-04-29T07:17:46;5.18;;;2.60;;
27740;SDS011;15134;48.768;9.184;2023-04-29T07:20:12;5.87;;;4.17;;
27740;SDS011;15134;48.768;9.184;2023-04-29T07:22:38;6.35;;;3.17;;
27740;SDS011;15134;48.768;9.184;2023-04-29T07:25:04;7.13;;;2.83;;
27740;SDS011;15134;48.768;9.184;2023-04-29T07:27:31;6.57;;;3.05;;
27740;SDS011;15134;48.768;9.184;2023-04-29T07:30:01;6.20;;;2.42;;
27740;SDS011;15134;48.768;9.184;2023-04-29T07:32:28;8.07;;;2.60;;
27740;SDS011;15134;48.768;9.184;2023-04-29T07:35:03;4.78;;;2.60;;
27740;SDS011;15134;48.768;9.184;2023-04-29T07:37:29;3.58;;;1.70;;
27740;SDS011;15134;48.768;9.184;2023-04-29T07:39:55;3.30;;;1.93;;
27740;SDS011;15134;48.768;9.184;2023-04-29T07:42:21;3.72;;;2.00;;
27740;SDS011;15134;48.768;9.184;2023-04-29T07:44:48;3.37;;;1.50;;
27740;SDS011;15134;48.768;9.184;2023-04-29T07:47:14;2.47;;;1.50;;
27740;SDS011;15134;48.768;9.184;2023-04-29T07:49:39;4.50;;;2.90;;
27740;SDS011;15134;48.768;9.184;2023-04-29T07:52:08;3.90;;;1.85;;
27740;SDS011;15134;48.768;9.184;2023-04-29T07:54:34;3.38;;;1.55;;
27740;SDS011;15134;48.768;9.184;2023-04-29T07:57:01;3.20;;;1.48;;
27740;SDS011;15134;48.768;9.184;2023-04-29T07:59:29;3.42;;;1.60;;
27740;SDS011;15134;48.768;9.184;2023-04-29T08:01:58;3.83;;;1.95;;
27740;SDS011;15134;48.768;9.184;2023-04-29T08:04:23;3.63;;;1.93;;
27740;SDS011;15134;48.768;9.184;2023-04-29T08:07:02;2.97;;;1.73;;
27740;SDS011;15134;48.768;9.184;2023-04-29T08:09:29;4.75;;;1.90;;
27740;SDS011;15134;48.768;9.184;2023-04-29T08:11:55;4.05;;;2.13;;
27740;SDS011;15134;48.768;9.184;2023-04-29T08:14:24;4.37;;;2.20;;
27740;SDS011;15134;48.768;9.184;2023-04-29T08:16:49;3.45;;;1.80;;
27740;SDS011;15134;48.768;9.184;2023-04-29T08:19:15;5.70;;;2.90;;
27740;SDS011;15134;48.768;9.184;2023-04-29T08:21:44;5.93;;;2.47;;
27740;SDS011;15134;48.768;9.184;2023-04-29T08:24:09;6.07;;;2.65;;
27740;SDS011;15134;48.768;9.184;2023-04-29T08:26:36;4.70;;;2.30;;
27740;SDS011;15134;48.768;9.184;2023-04-29T08:29:01;4.23;;;2.80;;
27740;SDS011;15134;48.768;9.184;2023-04-29T08:31:27;4.07;;;2.42;;
27740;SDS011;15134;48.768;9.184;2023-04-29T08:33:53;7.33;;;3.93;;
27740;SDS011;15134;48.768;9.184;2023-04-29T08:36:19;8.87;;;4.50;;
27740;SDS011;15134;48.768;9.184;2023-04-29T08:38:47;7.70;;;3.90;;
27740;SDS011;15134;48.768;9.184;2023-04-29T08:41:16;6.57;;;3.90;;
27740;SDS011;15134;48.768;9.184;2023-04-29T08:43:45;15.47;;;6.80;;
27740;SDS011;15134;48.768;9.184;2023-04-29T08:46:11;7.03;;;2.85;;
27740;SDS011;15134;48.768;9.184;2023-04-29T08:48:37;6.47;;;3.30;;
27740;SDS011;15134;48.768;9.184;2023-04-29T08:51:05;10.30;;;3.95;;
27740;SDS011;15134;48.768;9.184;2023-04-29T08:53:31;7.68;;;3.08;;
27740;SDS011;15134;48.768;9.184;2023-04-29T08:55:57;5.60;;;3.37;;
27740;SDS011;15134;48.768;9.184;2023-04-29T08:58:33;7.18;;;4.38;;
27740;SDS011;15134;48.768;9.184;2023-04-29T09:01:10;5.68;;;2.97;;
27740;SDS011;15134;48.768;9.184;2023-04-29T09:04:20;4.88;;;2.92;;
27740;SDS011;15134;48.768;9.184;2023-04-29T09:06:41;5.60;;;2.70;;
27740;SDS011;15134;48.768;9.184;2023-04-29T09:09:07;5.43;;;2.90;;
27740;SDS011;15134;48.768;9.184;2023-04-29T09:11:34;5.43;;;3.42;;
27740;SDS011;15134;48.768;9.184;2023-04-29T09:14:01;4.78;;;3.15;;
27740;SDS011;15134;48.768;9.184;2023-04-29T09:16:30;4.78;;;2.65;;
27740;SDS011;15134;48.768;9.184;2023-04-29T09:18:56;4.45;;;2.80;;
27740;SDS011;15134;48.768;9.184;2023-04-29T09:21:23;5.87;;;3.00;;
27740;SDS011;15134;48.768;9.184;2023-04-29T09:23:52;4.22;;;2.88;;
27740;SDS011;15134;48.768;9.184;2023-04-29T09:26:25;4.93;;;2.78;;
27740;SDS011;15134;48.768;9.184;2023-04-29T09:29:11;9.27;;;6.18;;
27740;SDS011;15134;48.768;9.184;2023-04-29T09:31:42;6.93;;;4.35;;
27740;SDS011;15134;48.768;9.184;2023-04-29T09:34:14;6.45;;;3.80;;
27740;SDS011;15134;48.768;9.184;2023-04-29T09:36:48;8.68;;;3.92;;
27740;SDS011;15134;48.768;9.184;2023-04-29T09:39:16;7.38;;;3.63;;
27740;SDS011;15134;48.768;9.184;2023-04-29T09:44:24;5.88;;;4.07;;
27740;SDS011;15134;48.768;9.184;2023-04-29T09:47:02;6.68;;;3.75;;
27740;SDS011;15134;48.768;9.184;2023-04-29T09:49:37;4.22;;;2.75;;
27740;SDS011;15134;48.768;9.184;2023-04-29T09:52:14;3.72;;;2.60;;
27740;SDS011;15134;48.768;9.184;2023-04-29T09:54:41;4.00;;;2.53;;
27740;SDS011;15134;48.768;9.184;2023-04-29T09:57:09;5.10;;;2.72;;
27740;SDS011;15134;48.768;9.184;2023-04-29T09:59:40;4.75;;;2.63;;
27740;SDS011;15134;48.768;9.184;2023-04-29T10:04:52;5.47;;;2.63;;
27740;SDS011;15134;48.768;9.184;2023-04-29T10:07:25;4.68;;;2.88;;
27740;SDS011;15134;48.768;9.184;2023-04-29T10:09:52;4.68;;;2.30;;
27740;SDS011;15134;48.768;9.184;2023-04-29T10:12:20;6.00;;;2.70;;
27740;SDS011;15134;48.768;9.184;2023-04-29T10:14:51;6.03;;;3.22;;
27740;SDS011;15134;48.768;9.184;2023-04-29T10:20:25;4.85;;;2.15;;
27740;SDS011;15134;48.768;9.184;2023-04-29T10:22:52;4.18;;;2.25;;
27740;SDS011;15134;48.768;9.184;2023-04-29T10:25:25;4.10;;;2.58;;
27740;SDS011;15134;48.768;9.184;2023-04-29T10:27:52;7.22;;;3.80;;
27740;SDS011;15134;48.768;9.184;2023-04-29T10:30:20;4.15;;;1.90;;
27740;SDS011;15134;48.768;9.184;2023-04-29T10:32:52;6.50;;;1.75;;
27740;SDS011;15134;48.768;9.184;2023-04-29T10:35:19;5.70;;;2.08;;
27740;SDS011;15134;48.768;9.184;2023-04-29T10:37:49;3.40;;;2.10;;
27740;SDS011;15134;48.768;9.184;2023-04-29T10:40:21;4.88;;;2.40;;
27740;SDS011;15134;48.768;9.184;2023-04-29T10:42:53;6.60;;;2.33;;
27740;SDS011;15134;48.768;9.184;2023-04-29T10:50:31;6.25;;;2.45;;
27740;SDS011;15134;48.768;9.184;2023-04-29T10:53:00;4.30;;;2.33;;
27740;SDS011;15134;48.768;9.184;2023-04-29T10:55:26;6.78;;;3.33;;
27740;SDS011;15134;48.768;9.184;2023-04-29T10:57:53;5.10;;;2.80;;
27740;SDS011;15134;48.768;9.184;2023-04-29T11:00:28;4.72;;;2.50;;
27740;SDS011;15134;48.768;9.184;2023-04-29T11:03:04;6.75;;;2.60;;
27740;SDS011;15134;48.768;9.184;2023-04-29T11:05:32;4.47;;;2.60;;
27740;SDS011;15134;48.768;9.184;2023-04-29T11:10:35;4.75;;;2.50;;
27740;SDS011;15134;48.768;9.184;2023-04-29T11:13:19;3.83;;;2.33;;
27740;SDS011;15134;48.768;9.184;2023-04-29T11:15:50;4.97;;;2.60;;
27740;SDS011;15134;48.768;9.184;2023-04-29T11:18:16;4.10;;;2.28;;
27740;SDS011;15134;48.768;9.184;2023-04-29T11:23:33;5.57;;;2.55;;
27740;SDS011;15134;48.768;9.184;2023-04-29T11:26:00;4.80;;;2.22;;
27740;SDS011;15134;48.768;9.184;2023-04-29T11:28:26;3.63;;;2.25;;
27740;SDS011;15134;48.768;9.184;2023-04-29T11:30:56;9.43;;;2.88;;
27740;SDS011;15134;48.768;9.184;2023-04-29T11:33:23;4.05;;;1.90;;
27740;SDS011;15134;48.768;9.184;2023-04-29T11:35:56;5.45;;;2.75;;
27740;SDS011;15134;48.768;9.184;2023-04-29T11:38:27;3.58;;;1.70;;
27740;SDS011;15134;48.768;9.184;2023-04-29T11:40:54;5.82;;;3.00;;
27740;SDS011;15134;48.768;9.184;2023-04-29T11:43:21;5.03;;;2.60;;
27740;SDS011;15134;48.768;9.184;2023-04-29T11:45:48;3.60;;;1.70;;
27740;SDS011;15134;48.768;9.184;2023-04-29T11:48:19;7.07;;;2.88;;
27740;SDS011;15134;48.768;9.184;2023-04-29T11:50:46;6.70;;;2.72;;
27740;SDS011;15134;48.768;9.184;2023-04-29T11:53:14;4.60;;;2.53;;
27740;SDS011;15134;48.768;9.184;2023-04-29T11:55:43;5.97;;;2.45;;
27740;SDS011;15134;48.768;9.184;2023-04-29T11:58:10;5.25;;;2.63;;
27740;SDS011;15134;48.768;9.184;2023-04-29T12:00:38;7.68;;;3.47;;
27740;SDS011;15134;48.768;9.184;2023-04-29T12:03:13;5.47;;;3.10;;
27740;SDS011;15134;48.768;9.184;2023-04-29T12:05:47;6.82;;;3.17;;
27740;SDS011;15134;48.768;9.184;2023-04-29T12:08:20;5.05;;;3.08;;
27740;SDS011;15134;48.768;9.184;2023-04-29T12:10:47;5.13;;;3.20;;
27740;SDS011;15134;48.768;9.184;2023-04-29T12:13:20;6.13;;;3.10;;
27740;SDS011;15134;48.768;9.184;2023-04-29T12:15:48;5.78;;;3.63;;
27740;SDS011;15134;48.768;9.184;2023-04-29T12:18:15;7.60;;;4.10;;
27740;SDS011;15134;48.768;9.184;2023-04-29T12:20:42;7.40;;;4.25;;
27740;SDS011;15134;48.768;9.184;2023-04-29T12:23:10;8.40;;;4.53;;
27740;SDS011;15134;48.768;9.184;2023-04-29T12:25:40;7.25;;;4.10;;
27740;SDS011;15134;48.768;9.184;2023-04-29T12:28:12;5.65;;;4.05;;
27740;SDS011;15134;48.768;9.184;2023-04-29T12:30:45;7.18;;;5.00;;
27740;SDS011;15134;48.768;9.184;2023-04-29T12:33:18;6.90;;;3.83;;
27740;SDS011;15134;48.768;9.184;2023-04-29T12:35:49;7.03;;;4.57;;
27740;SDS011;15134;48.768;9.184;2023-04-29T12:38:19;7.05;;;4.22;;
27740;SDS011;15134;48.768;9.184;2023-04-29T12:40:46;7.78;;;4.57;;
27740;SDS011;15134;48.768;9.184;2023-04-29T12:43:13;7.88;;;5.22;;
27740;SDS011;15134;48.768;9.184;2023-04-29T12:45:39;8.52;;;5.47;;
27740;SDS011;15134;48.768;9.184;2023-04-29T12:48:05;9.33;;;5.30;;
27740;SDS011;15134;48.768;9.184;2023-04-29T12:50:40;11.18;;;5.07;;
27740;SDS011;15134;48.768;9.184;2023-04-29T12:53:06;9.77;;;5.80;;
27740;SDS011;15134;48.768;9.184;2023-04-29T12:55:34;8.52;;;5.40;;
27740;SDS011;15134;48.768;9.184;2023-04-29T12:58:01;7.82;;;5.15;;
27740;SDS011;15134;48.768;9.184;2023-04-29T13:00:27;8.77;;;5.78;;
27740;SDS011;15134;48.768;9.184;2023-04-29T13:02:53;9.07;;;5.63;;
27740;SDS011;15134;48.768;9.184;2023-04-29T13:05:20;10.00;;;5.75;;
27740;SDS011;15134;48.768;9.184;2023-04-29T13:07:47;7.13;;;5.03;;
27740;SDS011;15134;48.768;9.184;2023-04-29T13:10:13;7.78;;;5.68;;
27740;SDS011;15134;48.768;9.184;2023-04-29T13:12:39;8.27;;;5.83;;
27740;SDS011;15134;48.768;9.184;2023-04-29T13:15:08;9.65;;;5.95;;
27740;SDS011;15134;48.768;9.184;2023-04-29T13:17:35;12.95;;;6.97;;
27740;SDS011;15134;48.768;9.184;2023-04-29T13:20:02;8.55;;;6.03;;
27740;SDS011;15134;48.768;9.184;2023-04-29T13:22:28;10.50;;;6.63;;
27740;SDS011;15134;48.768;9.184;2023-04-29T13:24:56;10.32;;;6.38;;
27740;SDS011;15134;48.768;9.184;2023-04-29T13:27:24;11.13;;;7.30;;
27740;SDS011;15134;48.768;9.184;2023-04-29T13:29:50;9.57;;;6.50;;
27740;SDS011;15134;48.768;9.184;2023-04-29T13:32:16;9.23;;;6.73;;
27740;SDS011;15134;48.768;9.184;2023-04-29T13:34:42;8.67;;;6.40;;
27740;SDS011;15134;48.768;9.184;2023-04-29T13:37:12;8.70;;;5.85;;
27740;SDS011;15134;48.768;9.184;2023-04-29T13:39:38;10.50;;;6.47;;
27740;SDS011;15134;48.768;9.184;2023-04-29T13:42:05;8.97;;;6.37;;
27740;SDS011;15134;48.768;9.184;2023-04-29T13:44:30;10.05;;;7.22;;
27740;SDS011;15134;48.768;9.184;2023-04-29T13:46:56;12.17;;;7.47;;
27740;SDS011;15134;48.768;9.184;2023-04-29T13:49:31;13.40;;;7.60;;
27740;SDS011;15134;48.768;9.184;2023-04-29T13:51:57;9.10;;;6.57;;
27740;SDS011;15134;48.768;9.184;2023-04-29T13:54:28;10.13;;;6.00;;
27740;SDS011;15134;48.768;9.184;2023-04-29T13:56:57;11.07;;;8.00;;
27740;SDS011;15134;48.768;9.184;2023-04-29T13:59:23;9.43;;;6.90;;
27740;SDS011;15134;48.768;9.184;2023-04-29T14:01:55;9.63;;;5.90;;
27740;SDS011;15134;48.768;9.184;2023-04-29T14:04:25;11.25;;;6.50;;
27740;SDS011;15134;48.768;9.184;2023-04-29T14:06:51;14.05;;;7.93;;
27740;SDS011;15134;48.768;9.184;2023-04-29T14:11:44;11.68;;;7.70;;
27740;SDS011;15134;48.768;9.184;2023-04-29T14:14:17;14.90;;;8.80;;
27740;SDS011;15134;48.768;9.184;2023-04-29T14:16:43;11.30;;;7.87;;
27740;SDS011;15134;48.768;9.184;2023-04-29T14:19:08;13.50;;;8.37;;
27740;SDS011;15134;48.768;9.184;2023-04-29T14:24:01;13.00;;;8.52;;
27740;SDS011;15134;48.768;9.184;2023-04-29T14:26:27;11.45;;;8.20;;
27740;SDS011;15134;48.768;9.184;2023-04-29T14:28:57;14.18;;;9.25;;
27740;SDS011;15134;48.768;9.184;2023-04-29T14:31:26;11.80;;;8.30;;
27740;SDS011;15134;48.768;9.184;2023-04-29T14:33:57;11.32;;;7.35;;
27740;SDS011;15134;48.768;9.184;2023-04-29T14:36:23;15.90;;;9.70;;
27740;SDS011;15134;48.768;9.184;2023-04-29T14:38:53;10.55;;;7.25;;
27740;SDS011;15134;48.768;9.184;2023-04-29T14:41:19;13.05;;;8.15;;
27740;SDS011;15134;48.768;9.184;2023-04-29T14:43:46;12.45;;;7.47;;
27740;SDS011;15134;48.768;9.184;2023-04-29T14:46:12;10.63;;;7.53;;
27740;SDS011;15134;48.768;9.184;2023-04-29T14:48:37;10.90;;;8.00;;
27740;SDS011;15134;48.768;9.184;2023-04-29T14:51:03;11.97;;;8.27;;
27740;SDS011;15134;48.768;9.184;2023-04-29T14:55:56;13.57;;;8.45;;
27740;SDS011;15134;48.768;9.184;2023-04-29T14:58:21;12.77;;;8.80;;
27740;SDS011;15134;48.768;9.184;2023-04-29T15:00:50;13.35;;;9.00;;
27740;SDS011;15134;48.768;9.184;2023-04-29T15:03:16;12.30;;;8.90;;
27740;SDS011;15134;48.768;9.184;2023-04-29T15:05:42;14.93;;;9.57;;
27740;SDS011;15134;48.768;9.184;2023-04-29T15:08:09;13.47;;;7.83;;
27740;SDS011;15134;48.768;9.184;2023-04-29T15:10:35;12.57;;;8.27;;
27740;SDS011;15134;48.768;9.184;2023-04-29T15:13:01;11.83;;;8.37;;
27740;SDS011;15134;48.768;9.184;2023-04-29T15:15:27;11.07;;;8.82;;
27740;SDS011;15134;48.768;9.184;2023-04-29T15:17:53;12.52;;;8.52;;
27740;SDS011;15134;48.768;9.184;2023-04-29T15:20:20;12.93;;;8.93;;
27740;SDS011;15134;48.768;9.184;2023-04-29T15:22:45;13.57;;;8.40;;
27740;SDS011;15134;48.768;9.184;2023-04-29T15:25:11;11.10;;;7.83;;
27740;SDS011;15134;48.768;9.184;2023-04-29T15:27:37;11.97;;;7.90;;
27740;SDS011;15134;48.768;9.184;2023-04-29T15:30:04;16.17;;;8.48;;
27740;SDS011;15134;48.768;9.184;2023-04-29T15:32:30;10.60;;;7.50;;
27740;SDS011;15134;48.768;9.184;2023-04-29T15:35:00;11.45;;;8.30;;
27740;SDS011;15134;48.768;9.184;2023-04-29T15:37:27;13.35;;;8.45;;
27740;SDS011;15134;48.768;9.184;2023-04-29T15:39:54;13.38;;;8.35;;
27740;SDS011;15134;48.768;9.184;2023-04-29T15:42:23;12.35;;;8.32;;
27740;SDS011;15134;48.768;9.184;2023-04-29T15:44:49;11.23;;;7.32;;
27740;SDS011;15134;48.768;9.184;2023-04-29T15:47:15;11.33;;;7.77;;
27740;SDS011;15134;48.768;9.184;2023-04-29T15:49:41;12.73;;;9.13;;